createdAt,value
2018-08-31T00:01:12.452Z,15.50
2018-08-31T00:04:50.953Z,15.50
2018-08-31T00:07:32.444Z,15.50
2018-08-31T00:12:18.733Z,15.40
2018-08-31T00:14:46.790Z,15.40
2018-08-31T00:17:14.904Z,15.30
2018-08-31T00:19:42.954Z,15.30
2018-08-31T00:22:11.015Z,15.30
2018-08-31T00:24:50.876Z,15.30
2018-08-31T00:27:30.569Z,15.30
2018-08-31T00:30:09.972Z,15.30
2018-08-31T00:33:05.733Z,15.30
2018-08-31T00:36:17.324Z,15.30
2018-08-31T00:38:56.947Z,15.30
2018-08-31T00:41:33.783Z,15.30
2018-08-31T00:44:13.153Z,15.20
2018-08-31T00:46:41.212Z,15.30
2018-08-31T00:49:09.265Z,15.30
2018-08-31T00:51:37.323Z,15.30
2018-08-31T00:54:05.579Z,15.30
2018-08-31T00:56:33.629Z,15.30
2018-08-31T00:59:01.678Z,15.30
2018-08-31T01:01:29.740Z,15.30
2018-08-31T01:03:57.779Z,15.30
2018-08-31T01:06:25.835Z,15.30
2018-08-31T01:08:53.893Z,15.30
2018-08-31T01:11:21.949Z,15.30
2018-08-31T01:13:49.997Z,15.30
2018-08-31T01:16:18.059Z,15.30
2018-08-31T01:18:46.120Z,15.20
2018-08-31T01:21:14.190Z,15.20
2018-08-31T01:23:42.238Z,15.20
2018-08-31T01:26:10.276Z,15.10
2018-08-31T01:28:38.318Z,15.10
2018-08-31T01:31:06.386Z,15.00
2018-08-31T01:33:34.432Z,15.00
2018-08-31T01:36:02.481Z,15.00
2018-08-31T01:38:30.528Z,15.00
2018-08-31T01:40:58.584Z,15.00
2018-08-31T01:43:26.640Z,15.00
2018-08-31T01:45:54.724Z,15.00
2018-08-31T01:48:22.782Z,15.00
2018-08-31T01:50:56.217Z,14.90
2018-08-31T01:53:28.166Z,14.90
2018-08-31T01:55:56.392Z,14.90
2018-08-31T01:58:24.464Z,14.90
2018-08-31T02:00:52.532Z,14.90
2018-08-31T02:03:20.601Z,14.90
2018-08-31T02:05:48.657Z,14.90
2018-08-31T02:08:16.713Z,14.90
2018-08-31T02:10:44.759Z,14.90
2018-08-31T02:13:12.809Z,14.80
2018-08-31T02:15:40.852Z,14.80
2018-08-31T02:18:08.905Z,14.80
2018-08-31T02:20:36.964Z,14.80
2018-08-31T02:23:05.091Z,14.80
2018-08-31T02:25:33.143Z,14.70
2018-08-31T02:28:01.200Z,14.70
2018-08-31T02:30:29.253Z,14.70
2018-08-31T02:32:57.307Z,14.70
2018-08-31T02:35:25.387Z,14.70
2018-08-31T02:37:53.437Z,14.70
2018-08-31T02:40:21.492Z,14.60
2018-08-31T02:42:49.549Z,14.70
2018-08-31T02:45:17.626Z,14.70
2018-08-31T02:47:45.696Z,14.70
2018-08-31T02:50:13.769Z,14.70
2018-08-31T02:52:41.832Z,14.60
2018-08-31T02:55:09.886Z,14.70
2018-08-31T02:57:37.940Z,14.70
2018-08-31T03:00:05.992Z,14.70
2018-08-31T03:02:34.072Z,14.70
2018-08-31T03:05:02.119Z,14.70
2018-08-31T03:07:30.172Z,14.70
2018-08-31T03:09:58.435Z,14.70
2018-08-31T03:12:26.489Z,14.70
2018-08-31T03:14:54.557Z,14.70
2018-08-31T03:17:22.604Z,14.70
2018-08-31T03:19:50.649Z,14.70
2018-08-31T03:22:18.701Z,14.70
2018-08-31T03:24:46.755Z,14.70
2018-08-31T03:27:14.809Z,14.70
2018-08-31T03:29:42.852Z,14.70
2018-08-31T03:32:10.896Z,14.70
2018-08-31T03:34:38.952Z,14.70
2018-08-31T03:37:07.015Z,14.70
2018-08-31T03:39:35.056Z,14.70
2018-08-31T03:42:03.100Z,14.60
2018-08-31T03:44:31.157Z,14.60
2018-08-31T03:46:59.205Z,14.60
2018-08-31T03:49:27.273Z,14.60
2018-08-31T03:51:55.303Z,14.50
2018-08-31T03:54:23.362Z,14.50
2018-08-31T03:56:51.408Z,14.50
2018-08-31T03:59:19.456Z,14.50
2018-08-31T04:01:47.508Z,14.50
2018-08-31T04:04:15.568Z,14.40
2018-08-31T04:06:43.611Z,14.40
2018-08-31T04:09:11.667Z,14.40
2018-08-31T04:11:39.718Z,14.40
2018-08-31T04:14:07.768Z,14.40
2018-08-31T04:16:35.828Z,14.40
2018-08-31T04:19:08.153Z,14.40
2018-08-31T04:21:36.364Z,14.40
2018-08-31T04:24:04.420Z,14.40
2018-08-31T04:26:32.473Z,14.30
2018-08-31T04:29:00.537Z,14.30
2018-08-31T04:31:28.572Z,14.20
2018-08-31T04:33:56.636Z,14.20
2018-08-31T04:36:24.685Z,14.20
2018-08-31T04:38:52.753Z,14.20
2018-08-31T04:41:21.647Z,14.20
2018-08-31T04:43:49.708Z,14.30
2018-08-31T04:46:17.757Z,14.30
2018-08-31T04:48:45.877Z,14.30
2018-08-31T04:51:13.925Z,14.30
2018-08-31T04:53:41.969Z,14.30
2018-08-31T04:56:10.037Z,14.40
2018-08-31T04:58:38.089Z,14.40
2018-08-31T05:01:06.135Z,14.40
2018-08-31T05:03:34.184Z,14.40
2018-08-31T05:06:02.244Z,14.50
2018-08-31T05:08:37.097Z,14.50
2018-08-31T05:11:05.163Z,14.50
2018-08-31T05:13:33.217Z,14.60
2018-08-31T05:16:01.628Z,14.60
2018-08-31T05:18:29.787Z,14.70
2018-08-31T05:20:57.876Z,14.80
2018-08-31T05:23:25.904Z,14.90
2018-08-31T05:25:54.236Z,14.90
2018-08-31T05:28:22.324Z,15.00
2018-08-31T05:30:50.340Z,15.10
2018-08-31T05:33:18.465Z,15.20
2018-08-31T05:35:46.516Z,15.30
2018-08-31T05:38:14.568Z,15.40
2018-08-31T05:40:42.639Z,15.50
2018-08-31T05:43:10.709Z,15.60
2018-08-31T05:45:38.760Z,15.60
2018-08-31T05:48:06.821Z,15.80
2018-08-31T05:50:34.872Z,15.80
2018-08-31T05:53:02.930Z,15.90
2018-08-31T05:55:31.078Z,16.00
2018-08-31T05:57:59.348Z,16.10
2018-08-31T06:00:27.413Z,16.20
2018-08-31T06:02:55.624Z,16.20
2018-08-31T06:05:23.672Z,16.40
2018-08-31T06:07:51.740Z,16.40
2018-08-31T06:10:19.807Z,16.50
2018-08-31T06:12:47.865Z,16.60
2018-08-31T06:15:15.939Z,16.70
2018-08-31T06:17:43.980Z,16.80
2018-08-31T06:20:12.141Z,16.90
2018-08-31T06:22:40.129Z,17.00
2018-08-31T06:25:08.189Z,17.10
2018-08-31T06:27:36.244Z,17.30
2018-08-31T06:30:04.406Z,17.40
2018-08-31T06:32:32.508Z,17.40
2018-08-31T06:35:00.525Z,17.50
2018-08-31T06:37:28.583Z,17.60
2018-08-31T06:39:56.660Z,17.70
2018-08-31T06:42:24.888Z,17.70
2018-08-31T06:44:52.952Z,17.80
2018-08-31T06:47:21.016Z,17.90
2018-08-31T06:49:49.068Z,18.00
2018-08-31T06:52:17.154Z,18.10
2018-08-31T06:54:45.206Z,18.40
2018-08-31T06:57:13.281Z,18.90
2018-08-31T06:59:41.338Z,19.40
2018-08-31T07:02:09.386Z,19.80
2018-08-31T07:04:37.460Z,20.10
2018-08-31T07:07:05.561Z,20.20
2018-08-31T07:09:33.612Z,20.30
2018-08-31T07:12:01.670Z,20.50
2018-08-31T07:14:29.724Z,21.00
2018-08-31T07:16:57.779Z,21.70
2018-08-31T07:19:25.945Z,23.10
2018-08-31T07:21:53.896Z,24.70
2018-08-31T07:24:21.957Z,26.20
2018-08-31T07:26:50.288Z,27.50
2018-08-31T07:29:18.208Z,28.90
2018-08-31T07:31:46.284Z,30.20
2018-08-31T07:34:14.405Z,31.10
2018-08-31T07:36:42.447Z,32.00
2018-08-31T07:39:11.236Z,32.60
2018-08-31T07:41:39.308Z,32.90
2018-08-31T07:44:07.356Z,32.50
2018-08-31T07:46:35.630Z,32.30
2018-08-31T07:49:03.658Z,31.90
2018-08-31T07:51:31.723Z,32.20
2018-08-31T07:53:59.806Z,32.80
2018-08-31T07:56:27.836Z,33.90
2018-08-31T07:58:55.910Z,35.10
2018-08-31T08:01:24.002Z,36.10
2018-08-31T08:03:52.066Z,36.30
2018-08-31T08:06:20.121Z,35.50
2018-08-31T08:08:48.182Z,34.50
2018-08-31T08:11:16.233Z,33.10
2018-08-31T08:13:44.293Z,32.00
2018-08-31T08:16:12.391Z,30.90
2018-08-31T08:18:40.401Z,30.00
2018-08-31T08:21:08.466Z,29.10
2018-08-31T08:23:36.525Z,28.60
2018-08-31T08:26:04.584Z,28.10
2018-08-31T08:28:32.672Z,27.90
2018-08-31T08:31:00.676Z,27.70
2018-08-31T08:33:28.742Z,27.70
2018-08-31T08:35:56.813Z,27.50
2018-08-31T08:40:58.342Z,28.30
2018-08-31T08:43:26.569Z,29.10
2018-08-31T08:45:54.624Z,29.40
2018-08-31T08:48:22.752Z,28.90
2018-08-31T08:50:50.727Z,28.80
2018-08-31T08:53:19.100Z,28.70
2018-08-31T08:55:47.140Z,28.60
2018-08-31T08:58:15.268Z,28.70
2018-08-31T09:00:43.269Z,28.60
2018-08-31T09:03:11.324Z,28.50
2018-08-31T09:05:39.431Z,28.60
2018-08-31T09:08:07.415Z,28.60
2018-08-31T09:10:35.477Z,28.80
2018-08-31T09:13:03.525Z,28.80
2018-08-31T09:15:31.592Z,29.00
2018-08-31T09:17:59.657Z,30.50
2018-08-31T09:20:27.712Z,32.40
2018-08-31T09:22:55.796Z,34.70
2018-08-31T09:25:23.852Z,36.60
2018-08-31T09:27:51.928Z,38.00
2018-08-31T09:30:55.722Z,39.20
2018-08-31T09:33:23.776Z,39.90
2018-08-31T09:35:51.832Z,40.00
2018-08-31T09:38:19.945Z,39.10
2018-08-31T09:40:47.950Z,38.50
2018-08-31T09:43:15.997Z,38.00
2018-08-31T09:45:44.052Z,37.00
2018-08-31T09:48:12.116Z,35.90
2018-08-31T09:50:40.185Z,36.00
2018-08-31T09:53:08.269Z,36.90
2018-08-31T09:55:36.334Z,36.30
2018-08-31T09:58:04.400Z,35.00
2018-08-31T10:00:37.844Z,34.00
2018-08-31T10:03:06.143Z,34.60
2018-08-31T10:05:34.572Z,34.90
2018-08-31T10:08:02.641Z,35.20
2018-08-31T10:10:30.705Z,36.40
2018-08-31T10:12:58.864Z,37.50
2018-08-31T10:15:26.925Z,38.80
2018-08-31T10:17:54.976Z,38.80
2018-08-31T10:20:23.053Z,37.40
2018-08-31T10:22:51.135Z,35.70
2018-08-31T10:25:19.190Z,34.80
2018-08-31T10:27:47.269Z,34.40
2018-08-31T10:30:15.427Z,35.10
2018-08-31T10:32:43.411Z,36.30
2018-08-31T10:35:11.484Z,36.90
2018-08-31T10:37:39.544Z,37.70
2018-08-31T10:40:07.617Z,38.60
2018-08-31T10:42:35.688Z,38.70
2018-08-31T10:45:03.997Z,38.10
2018-08-31T10:47:31.994Z,38.00
2018-08-31T10:50:00.070Z,38.20
2018-08-31T10:52:28.130Z,38.30
2018-08-31T10:54:56.218Z,37.30
2018-08-31T10:57:24.276Z,37.30
2018-08-31T10:59:52.344Z,36.80
2018-08-31T11:02:20.423Z,36.50
2018-08-31T11:04:48.484Z,35.40
2018-08-31T11:07:16.564Z,34.50
2018-08-31T11:09:44.653Z,33.80
2018-08-31T11:12:12.721Z,33.90
2018-08-31T11:14:40.795Z,33.60
2018-08-31T11:17:08.847Z,33.00
2018-08-31T11:19:36.928Z,33.10
2018-08-31T11:22:05.009Z,33.20
2018-08-31T11:24:33.080Z,33.70
2018-08-31T11:27:01.150Z,34.70
2018-08-31T11:29:29.248Z,35.70
2018-08-31T11:31:57.296Z,36.50
2018-08-31T11:34:25.359Z,36.90
2018-08-31T11:36:53.428Z,36.80
2018-08-31T11:39:21.500Z,35.70
2018-08-31T11:41:49.554Z,34.50
2018-08-31T11:44:17.625Z,33.60
2018-08-31T11:46:45.688Z,33.20
2018-08-31T11:49:13.748Z,33.30
2018-08-31T11:51:41.842Z,33.20
2018-08-31T11:54:09.891Z,32.70
2018-08-31T11:56:37.948Z,32.30
2018-08-31T11:59:06.025Z,32.10
2018-08-31T12:01:34.135Z,31.90
2018-08-31T12:04:02.181Z,31.90
2018-08-31T12:06:30.261Z,32.00
2018-08-31T12:08:58.337Z,32.10
2018-08-31T12:11:26.405Z,32.20
2018-08-31T12:13:54.468Z,32.20
2018-08-31T12:16:22.521Z,32.20
2018-08-31T12:18:50.585Z,32.30
2018-08-31T12:21:18.647Z,32.30
2018-08-31T12:23:46.723Z,32.20
2018-08-31T12:26:14.788Z,32.10
2018-08-31T12:28:42.860Z,31.90
2018-08-31T12:31:10.938Z,31.50
2018-08-31T12:33:38.989Z,31.20
2018-08-31T12:36:07.062Z,30.70
2018-08-31T12:38:35.121Z,30.30
2018-08-31T12:41:03.173Z,30.10
2018-08-31T12:43:31.233Z,30.20
2018-08-31T12:45:59.310Z,30.30
2018-08-31T12:48:27.366Z,30.40
2018-08-31T12:50:55.444Z,30.70
2018-08-31T12:53:23.583Z,31.00
2018-08-31T12:55:51.639Z,31.20
2018-08-31T12:58:19.712Z,31.50
2018-08-31T13:00:47.787Z,31.60
2018-08-31T13:03:15.851Z,31.50
2018-08-31T13:05:43.928Z,31.40
2018-08-31T13:08:11.988Z,31.30
2018-08-31T13:10:40.046Z,31.50
2018-08-31T13:13:08.121Z,31.90
2018-08-31T13:15:36.197Z,32.30
2018-08-31T13:18:04.296Z,32.60
2018-08-31T13:20:32.373Z,32.90
2018-08-31T13:23:00.446Z,33.00
2018-08-31T13:25:28.516Z,33.00
2018-08-31T13:27:56.578Z,33.10
2018-08-31T13:30:24.650Z,33.00
2018-08-31T13:32:52.708Z,33.00
2018-08-31T13:35:21.014Z,33.00
2018-08-31T13:37:49.118Z,32.60
2018-08-31T13:40:17.140Z,32.30
2018-08-31T13:42:45.208Z,32.10
2018-08-31T13:45:13.267Z,32.10
2018-08-31T13:47:41.338Z,32.00
2018-08-31T13:50:09.389Z,31.90
2018-08-31T13:52:37.478Z,31.80
2018-08-31T13:55:05.520Z,31.70
2018-08-31T13:57:33.588Z,31.50
2018-08-31T14:00:01.644Z,31.30
2018-08-31T14:02:29.845Z,31.30
2018-08-31T14:04:57.917Z,31.50
2018-08-31T14:07:26.026Z,31.60
2018-08-31T14:09:54.104Z,31.40
2018-08-31T14:12:22.170Z,31.10
2018-08-31T14:14:50.264Z,30.80
2018-08-31T14:17:18.329Z,30.60
2018-08-31T14:19:46.390Z,30.50
2018-08-31T14:22:14.461Z,30.60
2018-08-31T14:24:42.531Z,30.60
2018-08-31T14:27:10.592Z,30.70
2018-08-31T14:29:38.705Z,30.80
2018-08-31T14:32:06.716Z,30.90
2018-08-31T14:34:34.789Z,31.00
2018-08-31T14:37:02.869Z,30.80
2018-08-31T14:39:30.928Z,30.80
2018-08-31T14:41:58.997Z,30.90
2018-08-31T14:44:27.070Z,30.90
2018-08-31T14:46:55.145Z,30.70
2018-08-31T14:49:23.216Z,30.60
2018-08-31T14:51:51.284Z,30.60
2018-08-31T14:54:19.353Z,30.50
2018-08-31T14:56:47.424Z,30.30
2018-08-31T14:59:15.494Z,30.20
2018-08-31T15:01:43.889Z,30.00
2018-08-31T15:04:11.951Z,29.90
2018-08-31T15:06:40.020Z,29.90
2018-08-31T15:09:08.957Z,29.70
2018-08-31T15:11:37.010Z,29.50
2018-08-31T15:14:05.085Z,29.40
2018-08-31T15:16:33.140Z,29.40
2018-08-31T15:19:01.269Z,29.30
2018-08-31T15:21:29.347Z,29.10
2018-08-31T15:23:57.401Z,28.60
2018-08-31T15:26:25.529Z,28.20
2018-08-31T15:28:53.736Z,27.90
2018-08-31T15:31:21.797Z,27.50
2018-08-31T15:33:49.840Z,27.10
2018-08-31T15:36:17.917Z,26.90
2018-08-31T15:38:45.968Z,26.70
2018-08-31T15:41:14.024Z,26.70
2018-08-31T15:43:42.241Z,26.60
2018-08-31T15:46:10.284Z,26.40
2018-08-31T15:48:38.377Z,26.40
2018-08-31T15:51:06.431Z,26.30
2018-08-31T15:53:34.490Z,26.20
2018-08-31T15:56:02.595Z,26.10
2018-08-31T15:58:30.748Z,26.00
2018-08-31T16:00:58.812Z,25.80
2018-08-31T16:03:26.875Z,25.60
2018-08-31T16:05:54.924Z,25.50
2018-08-31T16:08:22.988Z,25.30
2018-08-31T16:10:51.035Z,25.20
2018-08-31T16:13:19.108Z,25.00
2018-08-31T16:15:47.155Z,24.90
2018-08-31T16:18:15.211Z,24.80
2018-08-31T16:20:43.307Z,24.60
2018-08-31T16:23:11.344Z,24.50
2018-08-31T16:25:39.393Z,24.30
2018-08-31T16:28:07.452Z,24.20
2018-08-31T16:30:35.529Z,24.10
2018-08-31T16:33:03.576Z,24.10
2018-08-31T16:35:31.651Z,24.00
2018-08-31T16:37:59.722Z,24.00
2018-08-31T16:40:27.785Z,23.90
2018-08-31T16:42:55.840Z,23.90
2018-08-31T16:45:23.913Z,23.90
2018-08-31T16:47:51.965Z,23.90
2018-08-31T16:50:20.025Z,23.90
2018-08-31T16:52:48.089Z,23.90
2018-08-31T16:55:16.161Z,23.90
2018-08-31T16:57:44.233Z,23.90
2018-08-31T17:00:12.374Z,23.90
2018-08-31T17:02:40.369Z,23.90
2018-08-31T17:05:08.424Z,23.90
2018-08-31T17:07:36.536Z,23.90
2018-08-31T17:10:04.564Z,23.90
2018-08-31T17:12:32.629Z,23.90
2018-08-31T17:15:00.696Z,23.80
2018-08-31T17:17:28.756Z,23.80
2018-08-31T17:19:56.821Z,23.70
2018-08-31T17:22:24.880Z,23.50
2018-08-31T17:24:52.956Z,23.40
2018-08-31T17:27:26.406Z,23.30
2018-08-31T17:29:54.531Z,23.20
2018-08-31T17:32:28.096Z,23.00
2018-08-31T17:35:01.670Z,22.90
2018-08-31T17:37:30.542Z,22.70
2018-08-31T17:39:58.868Z,22.60
2018-08-31T17:42:28.900Z,22.50
2018-08-31T17:44:56.963Z,22.40
2018-08-31T17:47:25.025Z,22.20
2018-08-31T17:49:53.089Z,22.10
2018-08-31T17:52:21.165Z,22.10
2018-08-31T17:54:49.244Z,22.00
2018-08-31T17:57:17.333Z,21.90
2018-08-31T17:59:45.545Z,21.80
2018-08-31T18:02:13.603Z,21.70
2018-08-31T18:04:41.658Z,21.60
2018-08-31T18:07:09.718Z,21.50
2018-08-31T18:09:37.802Z,21.40
2018-08-31T18:12:05.892Z,21.20
2018-08-31T18:14:33.913Z,21.20
2018-08-31T18:17:01.974Z,21.00
2018-08-31T18:19:30.053Z,20.90
2018-08-31T18:21:58.113Z,20.80
2018-08-31T18:24:26.179Z,20.80
2018-08-31T18:26:54.241Z,20.70
2018-08-31T18:29:22.353Z,20.60
2018-08-31T18:31:50.388Z,20.60
2018-08-31T18:34:18.443Z,20.40
2018-08-31T18:36:46.506Z,20.30
2018-08-31T18:39:14.576Z,20.20
2018-08-31T18:41:42.627Z,20.20
2018-08-31T18:44:10.700Z,20.10
2018-08-31T18:46:38.772Z,20.00
2018-08-31T18:49:06.832Z,19.90
2018-08-31T18:51:34.889Z,19.90
2018-08-31T18:54:02.972Z,19.80
2018-08-31T18:56:31.003Z,19.80
2018-08-31T18:58:59.068Z,19.70
2018-08-31T19:01:27.127Z,19.60
2018-08-31T19:03:55.197Z,19.60
2018-08-31T19:06:23.255Z,19.50
2018-08-31T19:08:51.312Z,19.50
2018-08-31T19:11:19.457Z,19.40
2018-08-31T19:13:47.528Z,19.40
2018-08-31T19:16:15.596Z,19.30
2018-08-31T19:18:43.676Z,19.30
2018-08-31T19:21:11.745Z,19.20
2018-08-31T19:23:39.803Z,19.20
2018-08-31T19:26:07.857Z,19.10
2018-08-31T19:28:35.925Z,19.10
2018-08-31T19:31:04.073Z,19.10
2018-08-31T19:33:32.125Z,19.10
2018-08-31T19:36:00.195Z,19.00
2018-08-31T19:38:28.621Z,19.00
2018-08-31T19:40:56.700Z,18.90
2018-08-31T19:43:24.725Z,18.90
2018-08-31T19:45:52.799Z,18.80
2018-08-31T19:48:20.964Z,18.70
2018-08-31T19:50:49.064Z,18.70
2018-08-31T19:53:17.200Z,18.60
2018-08-31T19:55:45.265Z,18.50
2018-08-31T19:58:13.322Z,18.50
2018-08-31T20:00:41.378Z,18.40
2018-08-31T20:03:09.449Z,18.40
2018-08-31T20:05:37.864Z,18.40
2018-08-31T20:08:05.917Z,18.30
2018-08-31T20:10:33.969Z,18.30
2018-08-31T20:13:02.025Z,18.30
2018-08-31T20:15:30.102Z,18.20
2018-08-31T20:17:58.144Z,18.20
2018-08-31T20:20:26.209Z,18.20
2018-08-31T20:22:54.271Z,18.10
2018-08-31T20:25:22.351Z,18.10
2018-08-31T20:27:50.480Z,18.10
2018-08-31T20:30:18.545Z,18.00
2018-08-31T20:32:46.601Z,18.00
2018-08-31T20:35:14.670Z,18.00
2018-08-31T20:37:42.736Z,17.90
2018-08-31T20:40:10.965Z,17.90
2018-08-31T20:42:39.029Z,17.90
2018-08-31T20:45:07.639Z,17.90
2018-08-31T20:47:35.692Z,17.80
2018-08-31T20:50:03.773Z,17.80
2018-08-31T20:52:31.846Z,17.80
2018-08-31T20:54:59.892Z,17.70
2018-08-31T20:57:28.152Z,17.70
2018-08-31T20:59:56.868Z,17.70
2018-08-31T21:02:25.022Z,17.70
2018-08-31T21:04:53.041Z,17.70
2018-08-31T21:07:21.107Z,17.60
2018-08-31T21:09:49.170Z,17.60
2018-08-31T21:12:17.293Z,17.60
2018-08-31T21:14:45.368Z,17.60
2018-08-31T21:17:13.432Z,17.60
2018-08-31T21:19:41.480Z,17.50
2018-08-31T21:22:09.541Z,17.60
2018-08-31T21:24:37.600Z,17.50
2018-08-31T21:27:05.664Z,17.50
2018-08-31T21:29:33.716Z,17.40
2018-08-31T21:32:01.805Z,17.40
2018-08-31T21:34:29.845Z,17.40
2018-08-31T21:36:57.895Z,17.40
2018-08-31T21:39:25.957Z,17.30
2018-08-31T21:41:54.070Z,17.30
2018-08-31T21:44:22.090Z,17.20
2018-08-31T21:46:50.144Z,17.10
2018-08-31T21:49:18.347Z,17.00
2018-08-31T21:51:46.325Z,16.90
2018-08-31T21:54:14.397Z,16.90
2018-08-31T21:56:42.444Z,16.80
2018-08-31T21:59:10.499Z,16.80
2018-08-31T22:01:39.688Z,16.70
2018-08-31T22:04:08.697Z,16.60
2018-08-31T22:06:37.405Z,16.60
2018-08-31T22:09:06.264Z,16.50
2018-08-31T22:11:34.319Z,16.50
2018-08-31T22:14:03.086Z,16.50
2018-08-31T22:16:31.139Z,16.40
2018-08-31T22:18:59.192Z,16.30
2018-08-31T22:21:27.270Z,16.30
2018-08-31T22:23:55.320Z,16.30
2018-08-31T22:26:23.389Z,16.20
2018-08-31T22:28:51.440Z,16.10
2018-08-31T22:31:19.503Z,16.10
2018-08-31T22:33:47.567Z,16.10
2018-08-31T22:36:15.643Z,16.10
2018-08-31T22:38:43.710Z,16.10
2018-08-31T22:41:11.775Z,16.00
2018-08-31T22:43:45.328Z,16.00
2018-08-31T22:46:13.376Z,16.00
2018-08-31T22:48:41.428Z,16.00
2018-08-31T22:51:09.486Z,16.00
2018-08-31T22:53:37.535Z,16.00
2018-08-31T22:56:05.612Z,16.00
2018-08-31T22:58:33.682Z,16.00
2018-08-31T23:01:01.734Z,16.00
2018-08-31T23:03:29.792Z,15.90
2018-08-31T23:05:57.858Z,15.90
2018-08-31T23:08:25.935Z,15.90
2018-08-31T23:10:53.987Z,16.00
2018-08-31T23:13:22.049Z,15.90
2018-08-31T23:15:50.113Z,15.90
2018-08-31T23:18:18.167Z,15.90
2018-08-31T23:20:46.238Z,15.90
2018-08-31T23:23:19.775Z,15.90
2018-08-31T23:25:48.621Z,15.90
2018-08-31T23:28:17.007Z,15.80
2018-08-31T23:30:45.188Z,15.80
2018-08-31T23:33:13.251Z,15.80
2018-08-31T23:35:41.301Z,15.70
2018-08-31T23:38:09.540Z,15.70
2018-08-31T23:40:37.621Z,15.60
2018-08-31T23:43:05.694Z,15.60
2018-08-31T23:45:33.733Z,15.60
2018-08-31T23:48:01.793Z,15.50
2018-08-31T23:50:29.877Z,15.50
2018-08-31T23:52:57.941Z,15.50
2018-08-31T23:55:26.116Z,15.50
2018-08-31T23:57:54.180Z,15.40
